Time;durP1;ratioP1;P1;durP2;ratioP2;P2;SDS_P1;SDS_P2;PMS_P1;PMS_P2;Temp;Humidity;BMP_temperature;BMP_pressure;BME280_temperature;BME280_humidity;BME280_pressure;Samples;Min_cycle;Max_cycle;Signal;HPM_P1;HPM_P2
2021/04/11 00:00:58;;;;;;;50.95;37.63;;;7.10;1.00;;;;;;5091556;28;20228;-76
2021/04/11 00:03:27;;;;;;;47.20;39.28;;;7.00;1.00;;;;;;5078272;28;20224;-77
2021/04/11 00:05:56;;;;;;;44.97;36.97;;;7.00;1.00;;;;;;5082143;28;20316;-78
2021/04/11 00:08:23;;;;;;;47.65;37.90;;;7.00;1.00;;;;;;5098983;27;20227;-80
2021/04/11 00:10:53;;;;;;;45.08;37.63;;;7.00;1.00;;;;;;5065626;28;20231;-78
2021/04/11 00:13:22;;;;;;;48.63;36.33;;;7.00;1.00;;;;;;5098976;28;20220;-81
2021/04/11 00:15:49;;;;;;;47.85;35.83;;;7.00;1.00;;;;;;5080867;28;20516;-81
2021/04/11 00:18:16;;;;;;;50.60;39.45;;;7.00;1.00;;;;;;5084988;28;20227;-81
2021/04/11 00:20:49;;;;;;;53.45;40.85;;;7.00;1.00;;;;;;5070191;28;20311;-81
2021/04/11 00:23:21;;;;;;;49.22;38.38;;;7.00;1.00;;;;;;5097106;28;20212;-80
2021/04/11 00:25:49;;;;;;;49.60;39.55;;;7.00;1.00;;;;;;5091644;27;20235;-80
2021/04/11 00:28:18;;;;;;;47.53;38.95;;;7.00;1.00;;;;;;5078264;28;20248;-81
2021/04/11 00:30:45;;;;;;;51.03;41.13;;;7.00;1.00;;;;;;5068746;28;20258;-82
2021/04/11 00:33:25;;;;;;;50.50;41.55;;;7.00;1.00;;;;;;5074614;28;21124;-82
2021/04/11 00:35:55;;;;;;;52.40;41.88;;;7.00;1.00;;;;;;5065168;28;20224;-82
2021/04/11 00:38:25;;;;;;;51.70;39.47;;;6.90;1.00;;;;;;5072237;28;20263;-82
2021/04/11 00:40:56;;;;;;;55.17;40.85;;;6.90;1.00;;;;;;5067943;28;20216;-80
2021/04/11 00:43:24;;;;;;;49.53;40.58;;;6.90;1.00;;;;;;5073458;28;20240;-78
2021/04/11 00:45:57;;;;;;;50.55;40.55;;;7.00;1.00;;;;;;5059282;28;20228;-79
2021/04/11 00:48:27;;;;;;;54.45;43.50;;;7.00;1.00;;;;;;5076848;28;20248;-78
2021/04/11 00:50:55;;;;;;;52.20;40.65;;;6.90;1.00;;;;;;5057753;28;20326;-78
2021/04/11 00:53:23;;;;;;;50.03;39.88;;;7.00;1.00;;;;;;5069274;28;20278;-79
2021/04/11 00:55:50;;;;;;;56.92;44.30;;;6.90;1.00;;;;;;5061152;28;20877;-78
2021/04/11 00:58:21;;;;;;;50.20;43.55;;;7.00;1.00;;;;;;5070181;28;20423;-77
2021/04/11 01:00:51;;;;;;;54.67;41.28;;;7.00;1.00;;;;;;5056125;28;20216;-80
2021/04/11 01:03:18;;;;;;;57.47;45.58;;;7.00;1.00;;;;;;5078048;28;20216;-77
2021/04/11 01:05:45;;;;;;;55.78;44.70;;;7.00;1.00;;;;;;5073948;28;20235;-80
2021/04/11 01:08:22;;;;;;;51.20;42.78;;;7.00;1.00;;;;;;5059240;28;20220;-78
2021/04/11 01:11:01;;;;;;;56.47;43.67;;;7.00;1.00;;;;;;5076928;28;20220;-79
2021/04/11 01:13:32;;;;;;;51.55;42.20;;;7.00;1.00;;;;;;5073096;28;20243;-78
2021/04/11 01:16:02;;;;;;;59.40;44.60;;;7.00;1.00;;;;;;5080192;28;20224;-78
2021/04/11 01:18:29;;;;;;;59.42;48.35;;;7.00;1.00;;;;;;5064590;28;20911;-80
2021/04/11 01:20:59;;;;;;;54.83;45.35;;;7.00;1.00;;;;;;5069779;28;20749;-78
2021/04/11 01:23:36;;;;;;;56.88;46.13;;;7.00;1.00;;;;;;5064181;28;20224;-78
2021/04/11 01:26:05;;;;;;;64.10;47.47;;;7.00;1.00;;;;;;5074602;28;20224;-77
2021/04/11 01:28:38;;;;;;;61.85;47.25;;;7.00;1.00;;;;;;5058518;28;21181;-78
2021/04/11 01:31:08;;;;;;;62.10;49.08;;;7.00;1.00;;;;;;5076362;28;20341;-78
2021/04/11 01:33:38;;;;;;;58.03;47.63;;;7.00;1.00;;;;;;5062988;28;20270;-78
2021/04/11 01:36:08;;;;;;;59.60;46.47;;;7.00;1.00;;;;;;5086217;28;20228;-78
2021/04/11 01:38:39;;;;;;;60.65;49.08;;;7.00;1.00;;;;;;5058327;28;20239;-80
2021/04/11 01:41:15;;;;;;;59.53;48.80;;;7.00;1.00;;;;;;5069400;28;20271;-81
2021/04/11 01:43:42;;;;;;;63.03;47.80;;;7.00;1.00;;;;;;5063184;28;20246;-81
2021/04/11 01:46:14;;;;;;;59.28;49.22;;;7.00;1.00;;;;;;5076443;28;20216;-81
2021/04/11 01:48:42;;;;;;;63.22;48.25;;;7.00;1.00;;;;;;5069003;28;20224;-80
2021/04/11 01:51:11;;;;;;;61.10;49.30;;;7.00;1.00;;;;;;5079099;28;20216;-80
2021/04/11 01:53:37;;;;;;;66.07;49.97;;;7.00;1.00;;;;;;5072287;28;20228;-79
2021/04/11 01:56:06;;;;;;;64.78;49.83;;;7.00;1.00;;;;;;5083653;27;20216;-80
2021/04/11 01:58:38;;;;;;;65.45;50.95;;;7.00;1.00;;;;;;5074252;28;20220;-80
2021/04/11 02:01:23;;;;;;;68.10;52.15;;;7.00;1.00;;;;;;5086335;28;20212;-80
2021/04/11 02:03:54;;;;;;;71.38;53.60;;;6.90;1.00;;;;;;5093063;28;20245;-81
2021/04/11 02:06:22;;;;;;;71.47;51.13;;;7.00;1.00;;;;;;5109358;28;20204;-80
2021/04/11 02:08:56;;;;;;;69.65;55.97;;;6.90;1.00;;;;;;5098450;28;20224;-81
2021/04/11 02:11:22;;;;;;;67.07;54.78;;;7.00;1.00;;;;;;5108477;28;20305;-82
2021/04/11 02:13:50;;;;;;;65.65;53.13;;;7.00;1.00;;;;;;5089391;28;20251;-82
2021/04/11 02:16:26;;;;;;;64.90;51.20;;;7.00;1.00;;;;;;5098930;28;20230;-80
2021/04/11 02:18:58;;;;;;;76.07;56.58;;;7.00;1.00;;;;;;5081595;28;20235;-80
2021/04/11 02:21:30;;;;;;;68.05;54.40;;;7.00;1.00;;;;;;5084916;28;20240;-80
2021/04/11 02:23:57;;;;;;;78.25;56.53;;;7.00;1.00;;;;;;5089198;28;20227;-81
2021/04/11 02:26:33;;;;;;;77.63;57.03;;;6.90;1.00;;;;;;5083887;28;20224;-80
2021/04/11 02:29:04;;;;;;;77.68;57.67;;;6.90;1.00;;;;;;5084868;28;20212;-79
2021/04/11 02:31:31;;;;;;;283.60;157.07;;;6.90;1.00;;;;;;5083426;28;20212;-81
2021/04/11 02:34:02;;;;;;;78.20;58.53;;;6.90;1.00;;;;;;5087475;28;20228;-80
2021/04/11 02:36:37;;;;;;;78.28;57.97;;;6.90;1.00;;;;;;5079023;27;20247;-79
2021/04/11 02:39:13;;;;;;;77.60;58.92;;;6.90;1.00;;;;;;5073472;28;20398;-80
2021/04/11 02:41:41;;;;;;;76.95;59.90;;;6.90;1.00;;;;;;5066346;28;20286;-80
2021/04/11 02:44:13;;;;;;;89.13;59.65;;;7.00;1.00;;;;;;5078112;28;20224;-81
2021/04/11 02:46:43;;;;;;;76.75;59.65;;;7.00;1.00;;;;;;5061221;28;20255;-82
2021/04/11 02:49:11;;;;;;;75.93;58.38;;;7.00;1.00;;;;;;5078162;28;20244;-81
2021/04/11 02:51:42;;;;;;;76.03;57.60;;;7.00;1.00;;;;;;5056873;28;20314;-79
2021/04/11 02:54:15;;;;;;;80.85;60.25;;;7.00;1.00;;;;;;5077157;28;20235;-78
2021/04/11 02:56:43;;;;;;;79.75;60.53;;;7.00;1.00;;;;;;5072863;27;20254;-77
2021/04/11 02:59:12;;;;;;;77.00;61.97;;;7.00;1.00;;;;;;5078225;28;20235;-77
2021/04/11 03:01:42;;;;;;;81.88;60.38;;;7.00;1.00;;;;;;5067276;28;20216;-77
2021/04/11 03:04:12;;;;;;;81.85;61.08;;;7.00;1.00;;;;;;5084011;27;20220;-78
2021/04/11 03:06:45;;;;;;;76.30;58.25;;;7.00;1.00;;;;;;5067342;28;20220;-80
2021/04/11 03:09:16;;;;;;;81.68;61.10;;;7.00;1.00;;;;;;5075074;28;20232;-78
2021/04/11 03:11:51;;;;;;;81.65;58.83;;;7.00;1.00;;;;;;5060581;28;20224;-77
2021/04/11 03:14:23;;;;;;;83.85;64.05;;;7.10;1.00;;;;;;5073672;28;20243;-79
2021/04/11 03:16:50;;;;;;;77.65;60.67;;;7.00;1.00;;;;;;5065577;28;20208;-78
2021/04/11 03:19:20;;;;;;;79.05;60.65;;;7.00;1.00;;;;;;5081245;28;20228;-77
2021/04/11 03:21:47;;;;;;;85.25;60.80;;;7.00;1.00;;;;;;5062477;28;20224;-78
2021/04/11 03:24:14;;;;;;;77.60;58.15;;;7.00;1.00;;;;;;5078366;28;20234;-78
2021/04/11 03:26:47;;;;;;;83.25;63.47;;;7.00;1.00;;;;;;5080225;27;20297;-76
2021/04/11 03:29:18;;;;;;;81.63;62.05;;;7.00;1.00;;;;;;5074932;28;20228;-77
2021/04/11 03:31:49;;;;;;;86.60;62.97;;;7.00;1.00;;;;;;5060158;28;20220;-79
2021/04/11 03:34:18;;;;;;;79.60;60.85;;;7.00;1.00;;;;;;5074143;28;20228;-79
2021/04/11 03:36:46;;;;;;;84.30;61.47;;;7.00;1.00;;;;;;5062757;28;20220;-79
2021/04/11 03:39:17;;;;;;;81.32;61.90;;;7.00;1.00;;;;;;5084029;28;20314;-78
2021/04/11 03:41:50;;;;;;;80.45;61.13;;;7.00;1.00;;;;;;5082863;28;20227;-77
2021/04/11 03:44:21;;;;;;;90.05;63.15;;;6.90;1.00;;;;;;5090161;28;20224;-76
2021/04/11 03:47:02;;;;;;;86.65;63.92;;;7.00;1.00;;;;;;5084422;28;20232;-79
2021/04/11 03:49:44;;;;;;;86.93;66.03;;;7.00;1.00;;;;;;5077290;28;20286;-76
2021/04/11 03:52:20;;;;;;;83.80;65.57;;;7.00;1.00;;;;;;5081760;28;20223;-79
2021/04/11 03:54:49;;;;;;;84.90;63.58;;;6.90;1.00;;;;;;5078690;28;20252;-79
2021/04/11 03:57:26;;;;;;;89.93;68.20;;;6.90;1.00;;;;;;5073463;28;21709;-81
2021/04/11 03:59:58;;;;;;;86.10;64.32;;;6.90;1.00;;;;;;5070111;28;20320;-79
2021/04/11 04:02:30;;;;;;;89.30;67.45;;;6.90;1.00;;;;;;5074942;28;21871;-77
2021/04/11 04:04:58;;;;;;;87.28;65.72;;;6.90;1.00;;;;;;5077066;28;21007;-76
2021/04/11 04:07:25;;;;;;;90.90;64.35;;;6.90;1.00;;;;;;5096228;28;20228;-76
2021/04/11 04:09:55;;;;;;;89.07;65.07;;;7.00;1.00;;;;;;5079945;28;20287;-78
2021/04/11 04:12:50;;;;;;;82.72;66.75;;;7.00;1.00;;;;;;5090292;28;20228;-78
2021/04/11 04:15:34;;;;;;;82.00;66.63;;;7.00;1.00;;;;;;5078769;28;20239;-78
2021/04/11 04:18:20;;;;;;;89.07;65.70;;;7.00;1.00;;;;;;5091913;28;20216;-77
2021/04/11 04:20:56;;;;;;;92.13;65.70;;;7.00;1.00;;;;;;5084845;28;20259;-79
2021/04/11 04:23:41;;;;;;;84.60;66.25;;;7.00;1.00;;;;;;5079892;28;20270;-78
2021/04/11 04:26:26;;;;;;;87.13;66.20;;;6.90;1.00;;;;;;5078876;28;20216;-81
2021/04/11 04:29:02;;;;;;;86.47;66.55;;;6.90;1.00;;;;;;5076626;28;20231;-80
2021/04/11 04:31:45;;;;;;;82.93;63.13;;;7.00;1.00;;;;;;5094024;27;20232;-80
2021/04/11 04:34:24;;;;;;;82.80;65.53;;;6.90;1.00;;;;;;5075020;28;20346;-80
2021/04/11 04:37:09;;;;;;;85.63;64.32;;;6.90;1.00;;;;;;5088131;28;20315;-79
2021/04/11 04:39:39;;;;;;;86.32;65.93;;;6.90;1.00;;;;;;5074546;28;20227;-80
2021/04/11 04:42:15;;;;;;;84.70;64.15;;;7.00;1.00;;;;;;5074015;28;20216;-81
2021/04/11 04:44:59;;;;;;;82.43;64.25;;;7.00;1.00;;;;;;5059610;28;20226;-80
2021/04/11 04:47:41;;;;;;;85.65;65.28;;;7.00;1.00;;;;;;5072273;28;20220;-78
2021/04/11 04:50:18;;;;;;;80.18;63.92;;;7.00;1.00;;;;;;5065754;28;20220;-79
2021/04/11 04:53:07;;;;;;;91.70;69.05;;;7.00;1.00;;;;;;5090108;28;20309;-77
2021/04/11 04:55:35;;;;;;;84.60;65.10;;;7.00;1.00;;;;;;5061149;28;20235;-77
2021/04/11 04:58:07;;;;;;;81.07;63.35;;;7.00;1.00;;;;;;5073917;28;20216;-77
2021/04/11 05:00:39;;;;;;;88.82;65.60;;;7.00;1.00;;;;;;5072156;27;20227;-77
2021/04/11 05:03:17;;;;;;;87.72;64.82;;;7.00;1.00;;;;;;5075615;27;20311;-77
2021/04/11 05:05:47;;;;;;;84.50;64.40;;;7.00;1.00;;;;;;5060670;28;20228;-77
2021/04/11 05:08:17;;;;;;;88.63;66.18;;;7.10;1.00;;;;;;5090158;28;20947;-79
2021/04/11 05:10:58;;;;;;;88.15;68.20;;;7.10;1.00;;;;;;5055967;28;20220;-77
2021/04/11 05:13:25;;;;;;;85.47;66.80;;;7.10;1.00;;;;;;5071923;28;21034;-76
2021/04/11 05:15:58;;;;;;;87.68;65.70;;;7.10;1.00;;;;;;5064704;28;21290;-76
2021/04/11 05:18:33;;;;;;;90.38;64.88;;;7.20;1.00;;;;;;5074857;28;20232;-76
2021/04/11 05:21:06;;;;;;;87.07;65.72;;;7.20;1.00;;;;;;5060356;28;20215;-76
2021/04/11 05:23:40;;;;;;;89.80;67.82;;;7.20;1.00;;;;;;5082450;28;20227;-79
2021/04/11 05:26:15;;;;;;;88.45;64.90;;;7.30;1.00;;;;;;5066125;28;20294;-79
2021/04/11 05:28:47;;;;;;;78.72;63.03;;;7.20;1.00;;;;;;5072492;28;20274;-78
2021/04/11 05:31:19;;;;;;;91.88;66.65;;;7.30;1.00;;;;;;5056579;28;20303;-79
2021/04/11 05:33:49;;;;;;;93.60;66.53;;;7.30;1.00;;;;;;5073097;28;20235;-76
2021/04/11 05:36:29;;;;;;;79.03;63.05;;;7.30;1.00;;;;;;5069303;28;20224;-78
2021/04/11 05:39:13;;;;;;;77.63;61.80;;;7.30;1.00;;;;;;5073438;28;20232;-76
2021/04/11 05:41:43;;;;;;;84.90;63.83;;;7.30;1.00;;;;;;5069662;28;20220;-79
2021/04/11 05:44:15;;;;;;;84.60;64.80;;;7.40;1.00;;;;;;5076145;28;21113;-77
2021/04/11 05:46:55;;;;;;;77.57;60.45;;;7.40;1.00;;;;;;5067431;28;20226;-76
2021/04/11 05:49:31;;;;;;;80.72;63.67;;;7.50;1.00;;;;;;5094152;28;20250;-76
2021/04/11 05:52:03;;;;;;;82.05;62.97;;;7.50;1.00;;;;;;5089561;28;21043;-76
2021/04/11 05:54:33;;;;;;;79.90;65.38;;;7.50;1.00;;;;;;5100564;28;20244;-76
2021/04/11 05:57:05;;;;;;;77.47;62.38;;;7.60;1.00;;;;;;5097802;28;20208;-76
2021/04/11 05:59:33;;;;;;;82.78;64.28;;;7.50;1.00;;;;;;5092359;28;20228;-77
2021/04/11 06:02:04;;;;;;;80.13;62.60;;;7.60;1.00;;;;;;5095569;28;20239;-77
2021/04/11 06:04:39;;;;;;;83.55;63.00;;;7.60;1.00;;;;;;5093171;28;20299;-80
2021/04/11 06:07:16;;;;;;;74.00;61.67;;;7.60;1.00;;;;;;5101250;28;20261;-81
2021/04/11 06:09:46;;;;;;;76.35;62.92;;;7.70;1.00;;;;;;5080941;28;20244;-80
2021/04/11 06:12:21;;;;;;;76.20;62.42;;;7.70;1.00;;;;;;5082126;28;20263;-81
2021/04/11 06:14:57;;;;;;;72.90;58.50;;;7.60;1.00;;;;;;5073567;28;20272;-80
2021/04/11 06:17:25;;;;;;;76.35;61.10;;;7.60;1.00;;;;;;5076940;28;20274;-77
2021/04/11 06:19:51;;;;;;;78.30;63.45;;;7.70;1.00;;;;;;5060850;28;20224;-77
2021/04/11 06:22:28;;;;;;;73.70;61.28;;;7.70;1.00;;;;;;5078061;28;20220;-77
2021/04/11 06:24:58;;;;;;;77.63;60.78;;;7.70;1.00;;;;;;5069528;28;20289;-76
2021/04/11 06:27:38;;;;;;;76.55;61.63;;;7.70;1.00;;;;;;5076668;28;20266;-81
2021/04/11 06:30:15;;;;;;;78.07;62.85;;;7.80;1.00;;;;;;5068817;28;20220;-79
2021/04/11 06:32:59;;;;;;;79.88;63.28;;;7.80;1.00;;;;;;5080588;28;20234;-80
2021/04/11 06:35:28;;;;;;;77.35;61.90;;;7.80;1.00;;;;;;5071793;28;20232;-80
2021/04/11 06:37:59;;;;;;;70.18;57.92;;;7.90;1.00;;;;;;5079247;28;20227;-81
2021/04/11 06:40:47;;;;;;;73.82;60.60;;;7.90;1.00;;;;;;5065599;28;20248;-81
2021/04/11 06:44:03;;;;;;;79.82;61.95;;;7.80;1.00;;;;;;5080214;28;20228;-80
2021/04/11 06:46:48;;;;;;;72.78;62.47;;;7.90;1.00;;;;;;5078838;28;20323;-82
2021/04/11 06:49:31;;;;;;;75.93;59.30;;;8.00;1.00;;;;;;5073476;28;20224;-81
2021/04/11 06:52:42;;;;;;;76.32;59.42;;;8.10;1.00;;;;;;5081680;28;20228;-80
2021/04/11 06:55:17;;;;;;;66.13;54.92;;;8.30;1.00;;;;;;4996102;28;20241;-80
2021/04/11 06:57:50;;;;;;;71.35;55.70;;;8.40;1.00;;;;;;5077405;28;20223;-80
2021/04/11 07:00:46;;;;;;;66.65;56.42;;;8.60;1.00;;;;;;5064683;28;20224;-78
2021/04/11 07:03:55;;;;;;;68.00;54.67;;;8.70;1.00;;;;;;5083220;28;20228;-76
2021/04/11 07:07:13;;;;;;;62.28;54.13;;;8.90;1.00;;;;;;5069976;28;20231;-78
2021/04/11 07:09:50;;;;;;;60.83;51.88;;;9.00;1.00;;;;;;5074841;28;20258;-78
2021/04/11 07:12:52;;;;;;;60.95;54.15;;;8.90;1.00;;;;;;5068763;28;21085;-79
2021/04/11 07:15:50;;;;;;;59.35;52.55;;;8.80;1.00;;;;;;5067157;28;20230;-77
2021/04/11 07:18:59;;;;;;;63.10;54.00;;;9.00;1.00;;;;;;5080685;28;20310;-78
2021/04/11 07:22:04;;;;;;;62.97;52.08;;;9.20;1.00;;;;;;5059371;28;22049;-76
2021/04/11 07:25:07;;;;;;;60.22;50.78;;;9.40;1.00;;;;;;5088192;28;20246;-80
2021/04/11 07:27:50;;;;;;;59.10;48.53;;;9.50;1.00;;;;;;5049859;28;20254;-78
2021/04/11 07:30:34;;;;;;;60.40;51.22;;;9.40;1.00;;;;;;5088277;28;20219;-80
2021/04/11 07:33:35;;;;;;;53.70;47.90;;;9.40;1.00;;;;;;5077076;28;20248;-79
2021/04/11 07:36:36;;;;;;;54.60;47.30;;;9.50;1.00;;;;;;5090776;28;20265;-80
2021/04/11 07:39:34;;;;;;;57.75;50.08;;;9.60;1.00;;;;;;5078830;28;20858;-79
2021/04/11 07:42:21;;;;;;;61.33;52.20;;;9.70;1.00;;;;;;5061335;28;20240;-80
2021/04/11 07:45:21;;;;;;;55.47;48.13;;;10.00;1.00;;;;;;5110445;22;20237;-80
2021/04/11 07:48:03;;;;;;;51.50;44.67;;;10.40;1.00;;;;;;5113936;27;20421;-80
2021/04/11 07:50:52;;;;;;;52.22;44.55;;;10.70;1.00;;;;;;5119327;28;20218;-80
2021/04/11 07:53:59;;;;;;;49.73;44.50;;;10.90;1.00;;;;;;5117506;27;20227;-79
2021/04/11 07:56:38;;;;;;;48.23;41.40;;;11.20;1.00;;;;;;5034768;28;20429;-80
2021/04/11 07:59:25;;;;;;;46.77;41.77;;;11.40;1.00;;;;;;5077141;28;20464;-80
2021/04/11 08:02:17;;;;;;;50.05;41.47;;;11.40;1.00;;;;;;5084406;28;20455;-81
2021/04/11 08:05:15;;;;;;;44.03;39.33;;;11.50;1.00;;;;;;5072485;28;20233;-80
2021/04/11 08:08:00;;;;;;;42.73;37.93;;;11.70;1.00;;;;;;5083160;28;20438;-80
2021/04/11 08:10:57;;;;;;;39.03;35.00;;;11.80;1.00;;;;;;5086378;28;20414;-81
2021/04/11 08:13:51;;;;;;;41.33;36.00;;;12.00;1.00;;;;;;5072621;28;21380;-81
2021/04/11 08:16:40;;;;;;;37.77;33.57;;;12.10;1.00;;;;;;5088003;28;20426;-80
2021/04/11 08:19:33;;;;;;;35.83;32.07;;;12.20;1.00;;;;;;5097723;28;20542;-80
2021/04/11 08:22:08;;;;;;;35.90;32.20;;;12.30;1.00;;;;;;5086369;28;20525;-82
2021/04/11 08:25:02;;;;;;;33.60;30.20;;;12.30;1.00;;;;;;5081176;28;20482;-81
2021/04/11 08:28:14;;;;;;;32.73;29.60;;;12.40;1.00;;;;;;5085417;28;20552;-80
2021/04/11 08:31:07;;;;;;;34.13;30.93;;;12.40;1.00;;;;;;5085893;28;20458;-82
2021/04/11 08:34:13;;;;;;;33.33;30.03;;;12.60;1.00;;;;;;5080969;28;20659;-83
2021/04/11 08:37:23;;;;;;;32.10;28.80;;;12.70;1.00;;;;;;5094099;28;20427;-81
2021/04/11 08:39:59;;;;;;;32.47;29.23;;;12.90;1.00;;;;;;5095439;28;20442;-82
2021/04/11 08:42:44;;;;;;;33.77;30.37;;;13.20;1.00;;;;;;5104116;28;20450;-81
2021/04/11 08:45:32;;;;;;;32.47;29.07;;;13.30;1.00;;;;;;5095209;28;20419;-82
2021/04/11 08:48:18;;;;;;;30.57;27.57;;;13.60;1.00;;;;;;5103590;28;20593;-81
2021/04/11 08:50:53;;;;;;;31.60;28.50;;;13.80;1.00;;;;;;5102415;28;20415;-81
2021/04/11 08:53:31;;;;;;;31.13;27.93;;;13.80;1.00;;;;;;5108504;28;20438;-81
2021/04/11 08:56:05;;;;;;;29.40;26.40;;;13.90;1.00;;;;;;5098058;27;20426;-81
2021/04/11 08:58:40;;;;;;;29.70;26.53;;;14.20;1.00;;;;;;5104790;28;20467;-82
2021/04/11 09:01:19;;;;;;;29.07;26.07;;;14.80;1.00;;;;;;5091503;28;20470;-80
2021/04/11 09:03:57;;;;;;;28.80;26.00;;;15.30;1.00;;;;;;5104710;28;20419;-81
2021/04/11 09:06:35;;;;;;;27.87;25.10;;;15.50;1.00;;;;;;5089851;28;20496;-84
2021/04/11 09:09:22;;;;;;;27.10;24.37;;;15.70;1.00;;;;;;5095236;28;20502;-82
2021/04/11 09:11:58;;;;;;;27.57;24.60;;;15.90;1.00;;;;;;5088238;28;20573;-80
2021/04/11 09:14:45;;;;;;;26.37;23.70;;;16.10;1.00;;;;;;5090635;28;20447;-82
2021/04/11 09:17:32;;;;;;;23.43;21.37;;;16.40;1.00;;;;;;5080184;28;20456;-81
2021/04/11 09:20:13;;;;;;;24.13;21.90;;;16.20;1.00;;;;;;5073400;28;20457;-82
2021/04/11 09:23:03;;;;;;;24.00;21.60;;;16.40;1.00;;;;;;5085053;28;20565;-82
2021/04/11 09:25:35;;;;;;;22.47;20.20;;;16.70;1.00;;;;;;5053857;28;22493;-81
2021/04/11 09:28:17;;;;;;;22.17;20.03;;;17.40;1.00;;;;;;5088311;28;20551;-79
2021/04/11 09:31:16;;;;;;;19.87;18.03;;;17.90;1.00;;;;;;5073351;28;20617;-79
2021/04/11 09:34:06;;;;;;;19.90;17.90;;;18.30;1.00;;;;;;5097642;28;20481;-83
2021/04/11 09:36:42;;;;;;;19.73;17.63;;;18.70;1.00;;;;;;5094519;28;20436;-81
2021/04/11 09:39:36;;;;;;;19.07;17.20;;;18.40;1.00;;;;;;5108309;27;20438;-81
2021/04/11 09:42:16;;;;;;;19.90;18.03;;;18.20;1.00;;;;;;5084499;28;20416;-80
2021/04/11 09:44:59;;;;;;;19.23;17.33;;;18.30;1.00;;;;;;5102054;27;20461;-81
2021/04/11 09:48:02;;;;;;;20.13;18.03;;;18.50;1.00;;;;;;5086230;28;20418;-80
2021/04/11 09:50:52;;;;;;;20.03;18.23;;;18.30;1.00;;;;;;5079522;28;20526;-80
2021/04/11 09:53:40;;;;;;;18.67;16.97;;;18.00;1.00;;;;;;5079204;28;20445;-80
2021/04/11 09:56:31;;;;;;;18.50;16.80;;;17.50;1.00;;;;;;5097489;28;20479;-80
2021/04/11 09:59:13;;;;;;;19.43;17.50;;;17.10;1.00;;;;;;5088550;28;20398;-80
2021/04/11 10:01:47;;;;;;;19.33;17.53;;;16.60;1.00;;;;;;5080726;27;20456;-80
2021/04/11 10:04:48;;;;;;;19.30;17.50;;;16.40;1.00;;;;;;5080795;28;20463;-80
2021/04/11 10:07:36;;;;;;;19.40;17.60;;;16.30;1.00;;;;;;5055983;28;20450;-80
2021/04/11 10:10:24;;;;;;;18.23;16.73;;;16.30;1.00;;;;;;5070733;28;20457;-74
2021/04/11 10:13:27;;;;;;;18.50;16.80;;;16.30;1.00;;;;;;5058790;28;21693;-79
2021/04/11 10:16:06;;;;;;;19.03;17.10;;;16.20;1.00;;;;;;5061625;28;20458;-76
2021/04/11 10:19:03;;;;;;;18.40;16.70;;;16.20;1.00;;;;;;5057573;28;20416;-78
2021/04/11 10:21:37;;;;;;;18.87;17.13;;;16.30;1.00;;;;;;5072155;28;20531;-76
2021/04/11 10:24:15;;;;;;;20.83;18.37;;;16.40;1.00;;;;;;5061260;28;20463;-79
2021/04/11 10:26:52;;;;;;;17.87;16.27;;;16.50;1.00;;;;;;5084774;28;20401;-79
2021/04/11 10:29:22;;;;;;;21.73;18.80;;;16.60;1.00;;;;;;5054964;28;20455;-78
2021/04/11 10:31:54;;;;;;;17.70;15.90;;;16.90;1.00;;;;;;5077796;28;21069;-80
2021/04/11 10:34:35;;;;;;;17.80;15.77;;;17.40;1.00;;;;;;5064962;28;20469;-77
2021/04/11 10:37:25;;;;;;;18.13;16.33;;;17.80;1.00;;;;;;5079938;28;20444;-77
2021/04/11 10:40:04;;;;;;;18.53;16.57;;;18.20;1.00;;;;;;5059683;28;20524;-79
2021/04/11 10:42:41;;;;;;;17.80;14.97;;;18.30;1.00;;;;;;5082988;28;20429;-77
2021/04/11 10:45:19;;;;;;;16.40;14.90;;;18.40;1.00;;;;;;5067905;28;20464;-78
2021/04/11 10:48:29;;;;;;;16.73;15.20;;;18.60;1.00;;;;;;5076357;28;20527;-77
2021/04/11 10:51:24;;;;;;;15.80;14.33;;;18.80;1.00;;;;;;5079616;28;20446;-78
2021/04/11 10:54:10;;;;;;;16.20;14.60;;;19.10;1.00;;;;;;5065980;28;20574;-78
2021/04/11 10:56:49;;;;;;;15.93;14.43;;;20.20;1.00;;;;;;5099062;28;20449;-77
2021/04/11 10:59:43;;;;;;;15.70;14.40;;;20.50;1.00;;;;;;5064273;28;21039;-78
2021/04/11 11:02:50;;;;;;;15.47;14.07;;;20.70;1.00;;;;;;5083118;28;20518;-79
2021/04/11 11:05:29;;;;;;;13.20;12.10;;;21.60;1.00;;;;;;5060782;28;20875;-80
2021/04/11 11:08:23;;;;;;;16.40;13.27;;;22.40;1.00;;;;;;5079269;28;20434;-79
2021/04/11 11:11:32;;;;;;;18.00;13.90;;;22.60;1.00;;;;;;5067127;28;20438;-77
2021/04/11 11:14:13;;;;;;;13.70;12.40;;;22.80;1.00;;;;;;5077699;28;20434;-76
2021/04/11 11:17:09;;;;;;;13.33;12.13;;;23.40;1.00;;;;;;5053713;28;20454;-78
2021/04/11 11:20:02;;;;;;;12.93;11.67;;;25.10;1.00;;;;;;5053217;28;21266;-77
2021/04/11 11:23:08;;;;;;;13.50;12.30;;;26.50;1.00;;;;;;5068985;28;20440;-78
2021/04/11 11:25:52;;;;;;;13.37;12.00;;;28.20;1.00;;;;;;5040951;28;20467;-75
2021/04/11 11:28:53;;;;;;;11.90;10.80;;;27.50;1.00;;;;;;5076478;28;20466;-77
2021/04/11 11:31:31;;;;;;;12.73;11.63;;;27.50;1.00;;;;;;5062404;28;20559;-75
2021/04/11 11:34:16;;;;;;;12.40;11.17;;;28.40;1.00;;;;;;5067283;28;20757;-78
2021/04/11 11:36:48;;;;;;;12.10;10.87;;;30.00;1.00;;;;;;5065835;28;21370;-78
2021/04/11 11:39:28;;;;;;;12.00;11.00;;;30.50;1.00;;;;;;5075806;28;20445;-76
2021/04/11 11:42:01;;;;;;;11.13;10.17;;;31.00;1.00;;;;;;5056221;28;21563;-75
2021/04/11 11:44:38;;;;;;;11.73;10.63;;;30.40;1.00;;;;;;5076498;28;20422;-79
2021/04/11 11:47:15;;;;;;;11.77;10.77;;;31.10;1.00;;;;;;5049926;28;21274;-75
2021/04/11 11:49:50;;;;;;;10.43;9.53;;;31.50;1.00;;;;;;5064140;28;20407;-77
2021/04/11 11:52:21;;;;;;;9.50;8.70;;;31.50;1.00;;;;;;5057410;28;20456;-76
2021/04/11 11:55:02;;;;;;;9.97;9.07;;;32.10;1.00;;;;;;5065057;28;20466;-79
2021/04/11 11:57:42;;;;;;;13.63;10.37;;;33.00;1.00;;;;;;5051952;28;20449;-77
2021/04/11 12:00:17;;;;;;;9.73;8.33;;;33.00;1.00;;;;;;5062454;28;20453;-77
2021/04/11 12:02:55;;;;;;;10.83;9.83;;;32.60;1.00;;;;;;5065158;27;20476;-77
2021/04/11 12:05:26;;;;;;;11.37;9.10;;;32.80;1.00;;;;;;5065609;28;20484;-76
2021/04/11 12:08:04;;;;;;;9.90;8.30;;;32.60;1.00;;;;;;5054501;28;21431;-77
2021/04/11 12:10:35;;;;;;;9.50;7.40;;;33.10;1.00;;;;;;5065143;28;24827;-77
2021/04/11 12:13:28;;;;;;;8.47;7.60;;;33.10;1.00;;;;;;5050217;28;20493;-76
2021/04/11 12:16:00;;;;;;;9.50;8.23;;;31.80;1.00;;;;;;5050018;28;20459;-77
2021/04/11 12:18:30;;;;;;;8.00;7.27;;;31.60;1.00;;;;;;5052399;28;22081;-76
2021/04/11 12:21:07;;;;;;;10.27;7.70;;;32.60;1.00;;;;;;5076425;27;20531;-77
2021/04/11 12:23:39;;;;;;;9.83;7.40;;;32.40;1.00;;;;;;5045915;28;20455;-79
2021/04/11 12:26:12;;;;;;;7.60;6.90;;;32.90;1.00;;;;;;5077303;28;20568;-77
2021/04/11 12:28:41;;;;;;;8.70;7.80;;;32.90;1.00;;;;;;5054090;28;20415;-78
2021/04/11 12:31:25;;;;;;;8.93;8.03;;;33.30;1.00;;;;;;5067792;28;21149;-79
2021/04/11 12:34:00;;;;;;;7.60;7.00;;;33.40;1.00;;;;;;5049146;28;20490;-76
2021/04/11 12:36:42;;;;;;;7.27;6.53;;;33.40;1.00;;;;;;5068811;28;20534;-77
2021/04/11 12:39:15;;;;;;;9.10;7.83;;;33.80;1.00;;;;;;5048870;28;20548;-78
2021/04/11 12:41:48;;;;;;;8.60;7.80;;;33.30;1.00;;;;;;5058112;28;20558;-77
2021/04/11 12:44:26;;;;;;;9.23;7.33;;;33.80;1.00;;;;;;5044618;28;20466;-78
2021/04/11 12:47:05;;;;;;;7.70;7.07;;;34.80;1.00;;;;;;5061958;28;20446;-77
2021/04/11 12:49:47;;;;;;;7.83;7.13;;;33.90;1.00;;;;;;5045775;28;20411;-76
2021/04/11 12:52:25;;;;;;;9.40;7.50;;;33.80;1.00;;;;;;5069287;28;20450;-77
2021/04/11 12:55:02;;;;;;;7.10;6.50;;;34.10;1.00;;;;;;5050778;28;20554;-78
2021/04/11 12:57:36;;;;;;;7.57;6.77;;;34.20;1.00;;;;;;5059568;28;20434;-76
2021/04/11 13:00:10;;;;;;;6.80;6.20;;;33.20;1.00;;;;;;5043054;28;20438;-75
2021/04/11 13:02:53;;;;;;;6.40;5.80;;;32.00;1.00;;;;;;5063664;28;20547;-80
2021/04/11 13:05:31;;;;;;;7.50;6.80;;;32.00;1.00;;;;;;5058560;28;22284;-83
2021/04/11 13:08:05;;;;;;;7.10;6.40;;;32.00;1.00;;;;;;5074711;28;20482;-80
2021/04/11 13:10:38;;;;;;;6.23;5.73;;;32.60;1.00;;;;;;5054354;28;20465;-81
2021/04/11 13:13:19;;;;;;;7.10;6.20;;;33.10;1.00;;;;;;5078325;28;20442;-80
2021/04/11 13:15:53;;;;;;;6.93;5.63;;;31.50;1.00;;;;;;5068092;28;20461;-80
2021/04/11 13:18:36;;;;;;;5.93;4.90;;;29.90;1.00;;;;;;5081930;28;20551;-81
2021/04/11 13:21:14;;;;;;;5.70;5.20;;;29.90;1.00;;;;;;5069513;28;20422;-81
2021/04/11 13:23:48;;;;;;;5.37;4.90;;;29.10;1.00;;;;;;5077870;28;20456;-80
2021/04/11 13:26:25;;;;;;;6.83;5.13;;;29.10;1.00;;;;;;5075529;28;20465;-80
2021/04/11 13:29:02;;;;;;;6.13;4.70;;;29.10;1.00;;;;;;5097172;28;21168;-80
2021/04/11 13:31:40;;;;;;;5.33;4.70;;;29.20;1.00;;;;;;5079238;28;20433;-81
2021/04/11 13:34:26;;;;;;;4.00;3.47;;;29.60;1.00;;;;;;5091346;28;20594;-82
2021/04/11 13:36:54;;;;;;;5.73;4.77;;;30.50;1.00;;;;;;5081042;28;20535;-79
2021/04/11 13:39:26;;;;;;;5.57;4.97;;;30.20;1.00;;;;;;5091833;28;20523;-80
2021/04/11 13:42:35;;;;;;;4.60;3.73;;;29.40;1.00;;;;;;5074193;28;20459;-80
2021/04/11 13:45:21;;;;;;;4.47;4.07;;;28.60;1.00;;;;;;5102680;27;20610;-82